createdAt,value
2018-11-06T00:00:04.435Z,38.83
2018-11-06T00:02:34.959Z,41.35
2018-11-06T00:05:15.892Z,44.07
2018-11-06T00:07:46.533Z,44.67
2018-11-06T00:10:17.013Z,42.00
2018-11-06T00:12:47.439Z,41.77
2018-11-06T00:15:17.909Z,39.78
2018-11-06T00:17:48.413Z,39.58
2018-11-06T00:20:18.829Z,40.88
2018-11-06T00:22:49.387Z,42.13
2018-11-06T00:25:19.904Z,41.50
2018-11-06T00:27:50.373Z,41.77
2018-11-06T00:30:20.863Z,43.95
2018-11-06T00:32:51.313Z,40.90
2018-11-06T00:35:21.756Z,39.40
2018-11-06T00:37:52.294Z,37.08
2018-11-06T00:40:22.761Z,38.35
2018-11-06T00:42:53.315Z,37.67
2018-11-06T06:02:13.410Z,20.40
2018-11-06T06:04:44.226Z,20.45
2018-11-06T06:07:14.695Z,19.00
2018-11-06T06:09:45.465Z,20.12
2018-11-06T06:12:16.009Z,21.90
2018-11-06T06:14:46.426Z,20.32
2018-11-06T06:17:16.907Z,20.15
2018-11-06T06:19:47.353Z,19.17
2018-11-06T06:22:17.885Z,20.15
2018-11-06T06:24:48.497Z,20.50
2018-11-06T06:27:18.907Z,19.10
2018-11-06T06:29:51.023Z,18.80
2018-11-06T06:32:27.426Z,19.67
2018-11-06T06:34:58.433Z,21.75
2018-11-06T06:37:28.826Z,21.95
2018-11-06T06:39:59.394Z,20.32
2018-11-06T06:42:29.876Z,19.23
2018-11-06T06:45:00.318Z,18.50
2018-11-06T06:47:30.862Z,19.32
2018-11-06T06:50:01.431Z,18.48
2018-11-06T06:52:31.913Z,19.15
2018-11-06T06:55:02.501Z,18.42
2018-11-06T06:57:33.005Z,18.05
2018-11-06T07:00:03.512Z,18.82
2018-11-06T07:02:34.162Z,18.50
2018-11-06T07:05:04.451Z,18.73
2018-11-06T07:07:34.926Z,16.65
2018-11-06T07:10:05.842Z,16.93
2018-11-06T07:12:36.446Z,16.93
2018-11-06T07:15:08.813Z,17.30
2018-11-06T07:17:39.368Z,16.40
2018-11-06T07:20:12.571Z,17.02
2018-11-06T07:22:43.073Z,17.95
2018-11-06T07:25:14.244Z,17.92
2018-11-06T07:27:46.033Z,17.27
2018-11-06T07:30:18.254Z,17.32
2018-11-06T07:32:48.870Z,17.35
2018-11-06T07:35:20.297Z,17.32
2018-11-06T07:37:50.747Z,17.35
2018-11-06T07:40:21.633Z,17.40
2018-11-06T07:42:52.195Z,17.37
2018-11-06T07:45:23.319Z,17.75
2018-11-06T07:47:54.157Z,17.40
2018-11-06T07:50:24.888Z,16.55
2018-11-06T07:52:55.630Z,15.85
2018-11-06T07:55:26.135Z,16.12
2018-11-06T07:57:56.725Z,17.25
2018-11-06T08:00:27.705Z,17.50
2018-11-06T08:02:58.261Z,16.70
2018-11-06T08:05:28.825Z,16.45
2018-11-06T08:07:59.311Z,16.25
2018-11-06T08:10:29.813Z,15.43
2018-11-06T08:13:00.422Z,15.78
2018-11-06T08:15:30.977Z,16.17
2018-11-06T08:18:01.459Z,14.50
2018-11-06T08:20:32.032Z,14.83
2018-11-06T08:23:02.535Z,14.43
2018-11-06T08:25:33.017Z,13.50
2018-11-06T08:28:03.522Z,13.75
2018-11-06T08:30:34.182Z,14.30
2018-11-06T08:33:05.628Z,14.33
2018-11-06T08:35:36.107Z,13.25
2018-11-06T08:38:06.605Z,12.58
2018-11-06T08:40:37.048Z,13.18
2018-11-06T08:43:07.585Z,12.75
2018-11-06T08:45:38.038Z,12.30
2018-11-06T08:48:08.545Z,12.45
2018-11-06T08:50:38.970Z,11.68
2018-11-06T08:53:09.433Z,11.80
2018-11-06T08:55:39.917Z,11.40
2018-11-06T08:58:10.363Z,11.73
2018-11-06T09:00:40.812Z,11.57
2018-11-06T09:03:11.253Z,12.43
2018-11-06T09:05:41.775Z,11.05
2018-11-06T09:08:12.260Z,12.23
2018-11-06T09:10:42.742Z,11.05
2018-11-06T09:13:13.170Z,11.63
2018-11-06T09:15:43.664Z,11.80
2018-11-06T09:18:14.121Z,11.45
2018-11-06T09:20:44.690Z,11.05
2018-11-06T09:23:15.106Z,11.22
2018-11-06T09:25:45.566Z,11.68
2018-11-06T09:28:16.068Z,11.43
2018-11-06T09:30:46.581Z,12.37
2018-11-06T09:33:17.021Z,12.78
2018-11-06T09:35:47.456Z,12.53
2018-11-06T09:38:17.968Z,11.97
2018-11-06T09:40:48.399Z,11.55
2018-11-06T09:43:18.861Z,11.73
2018-11-06T09:45:49.316Z,12.10
2018-11-06T09:48:19.808Z,11.83
2018-11-06T09:50:50.301Z,12.35
2018-11-06T09:53:20.766Z,12.65
2018-11-06T09:55:51.221Z,12.10
2018-11-06T09:58:21.677Z,12.55
2018-11-06T10:00:52.170Z,12.55
2018-11-06T10:03:22.753Z,12.30
2018-11-06T10:05:53.187Z,11.97
2018-11-06T10:08:23.694Z,12.23
2018-11-06T10:10:54.157Z,12.47
2018-11-06T10:13:24.580Z,12.58
2018-11-06T10:15:55.081Z,12.55
2018-11-06T10:18:25.590Z,12.25
2018-11-06T10:20:56.046Z,12.78
2018-11-06T10:23:29.431Z,12.65
2018-11-06T10:26:00.091Z,12.68
2018-11-06T10:28:30.776Z,12.18
2018-11-06T10:31:01.252Z,10.18
2018-11-06T10:33:31.796Z,11.75
2018-11-06T10:36:02.449Z,11.95
2018-11-06T10:38:32.869Z,11.50
2018-11-06T10:41:03.381Z,12.18
2018-11-06T10:43:34.346Z,12.00
2018-11-06T10:46:04.868Z,10.13
2018-11-06T10:48:40.054Z,12.03
2018-11-06T10:51:10.566Z,12.35
2018-11-06T10:53:41.065Z,11.85
2018-11-06T10:56:11.583Z,12.58
2018-11-06T10:58:42.052Z,11.73
2018-11-06T11:01:30.221Z,13.05
2018-11-06T11:04:16.264Z,11.78
2018-11-06T11:06:46.954Z,11.55
2018-11-06T11:09:17.466Z,12.28
2018-11-06T11:11:48.013Z,12.23
2018-11-06T11:14:18.561Z,12.30
2018-11-06T11:16:49.068Z,11.50
2018-11-06T11:19:19.591Z,12.05
2018-11-06T11:21:50.022Z,12.15
2018-11-06T11:24:20.525Z,11.75
2018-11-06T11:26:51.053Z,12.05
2018-11-06T11:29:21.630Z,12.55
2018-11-06T11:31:52.160Z,11.08
2018-11-06T11:34:22.889Z,12.13
2018-11-06T11:36:53.394Z,11.63
2018-11-06T11:39:23.854Z,11.70
2018-11-06T11:41:54.441Z,9.40
2018-11-06T11:44:25.105Z,11.50
2018-11-06T11:46:55.565Z,11.65
2018-11-06T11:49:26.201Z,11.70
2018-11-06T11:51:56.772Z,10.70
2018-11-06T11:54:27.353Z,11.45
2018-11-06T11:56:57.777Z,51.35
2018-11-06T11:59:28.217Z,14.23
2018-11-06T12:01:58.691Z,12.70
2018-11-06T12:04:29.145Z,11.60
2018-11-06T12:06:59.641Z,13.05
2018-11-06T12:09:30.088Z,12.15
2018-11-06T12:12:00.535Z,10.93
2018-11-06T12:14:31.000Z,11.88
2018-11-06T12:17:01.565Z,11.60
2018-11-06T12:19:31.999Z,10.88
2018-11-06T12:22:02.458Z,11.53
2018-11-06T12:24:32.916Z,10.65
2018-11-06T12:27:03.364Z,10.63
2018-11-06T12:29:33.810Z,10.75
2018-11-06T12:32:04.271Z,11.35
2018-11-06T12:34:35.418Z,11.20
2018-11-06T12:37:06.101Z,10.45
2018-11-06T12:39:36.472Z,11.18
2018-11-06T12:42:07.402Z,11.08
2018-11-06T12:44:37.833Z,10.90
2018-11-06T12:47:08.294Z,10.18
2018-11-06T12:49:38.715Z,10.50
2018-11-06T12:52:09.280Z,10.58
2018-11-06T12:54:39.732Z,10.45
2018-11-06T12:57:10.201Z,10.23
2018-11-06T12:59:40.662Z,10.72
2018-11-06T13:02:11.089Z,11.08
2018-11-06T13:04:41.505Z,10.95
2018-11-06T13:07:12.088Z,10.80
2018-11-06T13:09:42.555Z,11.48
2018-11-06T13:12:13.176Z,11.00
2018-11-06T13:14:43.612Z,11.38
2018-11-06T13:19:44.469Z,11.93
2018-11-06T13:22:14.899Z,11.28
2018-11-06T13:24:45.352Z,10.82
2018-11-06T13:27:15.799Z,11.60
2018-11-06T13:29:46.277Z,11.55
2018-11-06T13:32:16.867Z,11.70
2018-11-06T13:34:47.346Z,11.05
2018-11-06T13:37:17.783Z,11.73
2018-11-06T13:39:48.340Z,10.90
2018-11-06T13:42:18.738Z,11.33
2018-11-06T13:44:49.518Z,11.73
2018-11-06T13:47:19.660Z,11.65
2018-11-06T13:49:50.161Z,11.45
2018-11-06T13:52:20.716Z,12.13
2018-11-06T13:54:51.101Z,11.08
2018-11-06T13:57:21.619Z,12.05
2018-11-06T13:59:52.112Z,11.73
2018-11-06T14:02:22.626Z,11.60
2018-11-06T14:04:53.131Z,11.40
2018-11-06T14:07:23.618Z,12.03
2018-11-06T14:09:54.299Z,11.93
2018-11-06T14:12:25.443Z,12.25
2018-11-06T14:14:55.978Z,12.45
2018-11-06T14:17:26.780Z,12.37
2018-11-06T14:19:57.484Z,14.85
2018-11-06T14:22:27.972Z,17.98
2018-11-06T14:24:58.436Z,17.82
2018-11-06T14:27:29.148Z,14.40
2018-11-06T14:29:59.645Z,16.42
2018-11-06T14:32:30.523Z,15.32
2018-11-06T14:35:01.020Z,14.83
2018-11-06T14:37:31.658Z,15.40
2018-11-06T14:40:02.232Z,20.15
2018-11-06T14:42:32.728Z,22.87
2018-11-06T14:45:03.352Z,25.10
2018-11-06T14:47:34.143Z,16.97
2018-11-06T14:50:05.191Z,15.20
2018-11-06T14:52:36.837Z,14.98
2018-11-06T14:55:09.589Z,14.30
2018-11-06T14:57:41.771Z,15.20
2018-11-06T15:00:21.303Z,20.05
2018-11-06T15:02:58.520Z,17.17
2018-11-06T15:05:30.252Z,16.95
2018-11-06T15:08:01.487Z,16.73
2018-11-06T15:10:32.701Z,26.17
2018-11-06T15:13:07.356Z,21.48
2018-11-06T15:15:37.836Z,20.95
2018-11-06T15:18:08.756Z,22.75
2018-11-06T15:20:39.385Z,20.60
2018-11-06T15:23:37.157Z,20.12
2018-11-06T15:26:28.876Z,16.97
2018-11-06T15:28:59.540Z,16.67
2018-11-06T15:31:30.119Z,16.35
2018-11-06T15:34:00.731Z,16.37
2018-11-06T15:36:31.361Z,15.70
2018-11-06T15:39:01.884Z,15.68
2018-11-06T15:41:49.057Z,17.70
2018-11-06T15:44:14.630Z,20.08
2018-11-06T15:46:45.358Z,20.55
2018-11-06T15:49:24.661Z,19.27
2018-11-06T15:51:55.295Z,18.55
2018-11-06T15:54:25.824Z,17.17
2018-11-06T15:56:56.256Z,16.20
2018-11-06T15:59:26.847Z,17.32
2018-11-06T16:01:57.391Z,17.82
2018-11-06T16:04:27.937Z,15.95
2018-11-06T16:07:12.421Z,17.23
2018-11-06T16:09:43.173Z,17.67
2018-11-06T16:12:14.635Z,20.80
2018-11-06T16:14:48.661Z,20.25
2018-11-06T16:17:19.529Z,20.97
2018-11-06T16:19:50.123Z,21.68
2018-11-06T16:22:20.681Z,20.35
2018-11-06T16:24:51.310Z,19.02
2018-11-06T16:27:22.017Z,18.70
2018-11-06T16:29:52.704Z,17.52
2018-11-06T16:32:23.891Z,17.40
2018-11-06T16:34:54.529Z,18.02
2018-11-06T16:37:25.876Z,16.85
2018-11-06T16:40:00.438Z,16.57
2018-11-06T16:42:31.381Z,16.27
2018-11-06T16:45:01.969Z,16.15
2018-11-06T16:47:32.577Z,17.17
2018-11-06T16:50:03.159Z,16.30
2018-11-06T16:52:33.790Z,16.67
2018-11-06T16:55:04.204Z,16.45
2018-11-06T16:57:34.749Z,16.00
2018-11-06T17:00:05.924Z,16.12
2018-11-06T17:02:40.110Z,16.85
2018-11-06T17:05:20.455Z,17.32
2018-11-06T17:07:50.166Z,16.93
2018-11-06T17:10:21.255Z,17.20
2018-11-06T17:12:51.845Z,17.67
2018-11-06T17:15:23.903Z,16.85
2018-11-06T17:17:55.045Z,17.37
2018-11-06T17:20:25.806Z,20.65
2018-11-06T17:22:56.519Z,20.50
2018-11-06T17:25:27.140Z,22.07
2018-11-06T17:27:57.559Z,22.45
2018-11-06T17:30:28.287Z,22.22
2018-11-06T17:32:59.077Z,19.05
2018-11-06T17:35:29.729Z,19.40
2018-11-06T17:38:01.142Z,19.32
2018-11-06T17:40:31.849Z,19.10
2018-11-06T17:43:02.396Z,19.32
2018-11-06T17:45:33.090Z,20.10
2018-11-06T17:48:03.736Z,21.02
2018-11-06T17:50:34.315Z,18.85
2018-11-06T17:53:04.792Z,18.92
2018-11-06T17:55:35.575Z,19.15
2018-11-06T17:58:06.446Z,19.77
2018-11-06T18:00:37.118Z,18.48
2018-11-06T18:03:07.674Z,19.37
2018-11-06T18:05:38.159Z,17.05
2018-11-06T18:08:08.706Z,19.25
2018-11-06T18:10:39.249Z,19.87
2018-11-06T18:13:09.745Z,18.70
2018-11-06T18:15:40.226Z,19.52
2018-11-06T18:18:10.795Z,20.45
2018-11-06T18:20:41.319Z,18.77
2018-11-06T18:23:11.913Z,19.85
2018-11-06T18:25:42.720Z,19.62
2018-11-06T18:28:13.158Z,21.00
2018-11-06T18:30:43.712Z,20.92
2018-11-06T18:33:18.714Z,24.12
2018-11-06T18:35:47.701Z,26.05
2018-11-06T18:38:18.394Z,25.55
2018-11-06T18:40:48.982Z,28.40
2018-11-06T18:43:25.639Z,28.57
2018-11-06T18:46:05.060Z,25.95
2018-11-06T18:48:42.601Z,24.52
2018-11-06T18:51:16.109Z,23.50
2018-11-06T18:53:46.797Z,22.98
2018-11-06T18:56:17.328Z,23.42
2018-11-06T18:58:48.008Z,24.50
2018-11-06T19:01:18.526Z,25.17
2018-11-06T19:03:49.140Z,24.65
2018-11-06T19:06:20.947Z,26.73
2018-11-06T19:08:51.649Z,26.75
2018-11-06T19:11:22.286Z,26.97
2018-11-06T19:13:53.006Z,26.20
2018-11-06T19:16:23.645Z,27.67
2018-11-06T19:18:54.322Z,27.30
2018-11-06T19:21:25.031Z,25.32
2018-11-06T19:23:55.965Z,26.52
2018-11-06T19:26:26.407Z,25.45
2018-11-06T19:28:57.600Z,39.63
2018-11-06T19:31:28.153Z,40.67
2018-11-06T19:37:06.781Z,26.37
2018-11-06T19:39:37.361Z,27.02
2018-11-06T19:42:07.987Z,29.25
2018-11-06T19:44:38.639Z,31.17
2018-11-06T19:47:09.270Z,35.78
2018-11-06T19:49:39.917Z,38.48
2018-11-06T19:52:10.528Z,35.15
2018-11-06T19:54:41.181Z,25.75
2018-11-06T19:57:13.205Z,25.17
2018-11-06T19:59:43.771Z,25.48
2018-11-06T20:02:15.143Z,24.85
2018-11-06T20:04:45.643Z,24.18
2018-11-06T20:07:16.507Z,24.43
2018-11-06T20:09:47.067Z,23.25
2018-11-06T20:12:17.645Z,22.82
2018-11-06T20:14:48.505Z,23.25
2018-11-06T20:17:19.175Z,22.50
2018-11-06T20:19:58.282Z,22.98
2018-11-06T20:22:28.969Z,24.02
2018-11-06T20:24:59.590Z,24.12
2018-11-06T20:27:30.202Z,25.05
2018-11-06T20:30:00.806Z,24.72
2018-11-06T20:32:31.351Z,25.92
2018-11-06T20:35:01.990Z,26.10
2018-11-06T20:37:32.617Z,25.77
2018-11-06T20:40:03.110Z,26.25
2018-11-06T20:42:33.907Z,25.85
2018-11-06T20:45:04.617Z,24.82
2018-11-06T20:47:35.561Z,26.70
2018-11-06T20:50:07.827Z,25.85
2018-11-06T20:52:38.452Z,25.55
2018-11-06T20:55:10.080Z,23.83
2018-11-06T20:57:41.027Z,24.02
2018-11-06T21:00:26.233Z,26.90
2018-11-06T21:02:58.247Z,25.12
2018-11-06T21:05:29.316Z,23.55
2018-11-06T21:07:59.990Z,24.12
2018-11-06T21:10:40.998Z,21.82
2018-11-06T21:13:33.497Z,21.87
2018-11-06T21:16:16.326Z,22.00
2018-11-06T21:18:47.023Z,23.30
2018-11-06T21:21:18.229Z,27.75
2018-11-06T21:23:49.129Z,28.80
2018-11-06T21:26:20.009Z,33.65
2018-11-06T21:28:50.578Z,32.53
2018-11-06T21:31:21.611Z,32.90
2018-11-06T21:33:52.381Z,31.57
2018-11-06T21:36:23.177Z,33.15
2018-11-06T21:38:54.085Z,26.62
2018-11-06T21:41:27.326Z,25.12
2018-11-06T21:43:58.503Z,23.75
2018-11-06T21:46:29.201Z,23.98
2018-11-06T21:49:09.254Z,24.20
2018-11-06T21:51:39.878Z,26.17
2018-11-06T21:54:10.601Z,25.10
2018-11-06T21:56:41.407Z,25.85
2018-11-06T21:59:12.029Z,25.20
2018-11-06T22:01:45.746Z,26.68
2018-11-06T22:04:16.360Z,27.80
2018-11-06T22:06:47.383Z,26.33
2018-11-06T22:09:18.031Z,28.00
2018-11-06T22:11:49.197Z,26.52
2018-11-06T22:14:20.686Z,25.85
2018-11-06T22:17:00.323Z,25.23
2018-11-06T22:19:37.413Z,25.30
2018-11-06T22:22:12.511Z,25.08
2018-11-06T22:24:44.436Z,25.40
2018-11-06T22:27:15.560Z,24.50
2018-11-06T22:29:46.300Z,25.10
2018-11-06T22:32:17.009Z,24.57
2018-11-06T22:34:47.668Z,23.73
2018-11-06T22:37:18.212Z,25.05
2018-11-06T22:39:48.725Z,24.27
2018-11-06T22:42:19.326Z,23.95
2018-11-06T22:44:49.956Z,25.35
2018-11-06T22:47:20.709Z,24.40
2018-11-06T22:49:51.930Z,23.52
2018-11-06T22:52:22.700Z,24.47
2018-11-06T22:54:53.236Z,22.90
2018-11-06T22:57:23.842Z,24.00
2018-11-06T22:59:54.387Z,23.87
2018-11-06T23:02:28.059Z,23.32
2018-11-06T23:04:58.660Z,22.62
2018-11-06T23:07:47.070Z,22.62
2018-11-06T23:10:17.825Z,22.60
2018-11-06T23:12:48.411Z,22.48
2018-11-06T23:15:19.149Z,22.82
2018-11-06T23:17:49.982Z,23.60
2018-11-06T23:20:20.528Z,21.93
2018-11-06T23:22:51.093Z,22.37
2018-11-06T23:25:21.658Z,23.10
2018-11-06T23:27:52.174Z,21.30
2018-11-06T23:30:22.779Z,21.60
2018-11-06T23:32:53.430Z,21.07
2018-11-06T23:35:24.020Z,21.50
2018-11-06T23:37:55.124Z,21.65
2018-11-06T23:40:27.852Z,20.82
2018-11-06T23:43:00.955Z,20.90
2018-11-06T23:45:29.764Z,21.30
2018-11-06T23:48:03.331Z,20.02
2018-11-06T23:50:35.371Z,20.45
2018-11-06T23:53:09.158Z,19.07
2018-11-06T23:55:40.047Z,20.43
2018-11-06T23:58:16.511Z,19.70
